Time;durP1;ratioP1;P1;durP2;ratioP2;P2;SDS_P1;SDS_P2;PMS_P1;PMS_P2;Temp;Humidity;BMP_temperature;BMP_pressure;BME280_temperature;BME280_humidity;BME280_pressure;Samples;Min_cycle;Max_cycle;Signal;HPM_P1;HPM_P2
2022/09/19 00:01:46;;;;;;;0.50;0.50;;;8.30;99.90;8.30;99706.00;;;;4929271;28;92583;-67
2022/09/19 00:04:26;;;;;;;1.17;0.40;;;8.30;99.90;8.20;99696.00;;;;4931257;28;93670;-66
2022/09/19 00:06:53;;;;;;;0.90;0.40;;;8.40;99.90;8.30;99700.00;;;;4913077;28;103870;-67
2022/09/19 00:09:24;;;;;;;0.30;0.30;;;8.30;99.90;8.30;99696.00;;;;4932048;28;92605;-67
2022/09/19 00:11:51;;;;;;;0.30;0.30;;;8.30;99.90;8.30;99687.00;;;;4931183;28;92521;-67
2022/09/19 00:14:23;;;;;;;0.33;0.30;;;8.40;99.90;8.30;99692.00;;;;4931935;28;92831;-67
2022/09/19 00:16:54;;;;;;;0.83;0.73;;;8.40;99.90;8.30;99687.00;;;;4932503;28;92980;-67
2022/09/19 00:19:20;;;;;;;0.30;0.30;;;8.40;99.90;8.30;99696.00;;;;4931846;28;91921;-68
2022/09/19 00:21:48;;;;;;;0.37;0.37;;;8.40;99.90;8.30;99690.00;;;;4930537;28;93495;-66
2022/09/19 00:27:03;;;;;;;0.40;0.23;;;8.40;99.90;8.40;99687.00;;;;4928641;28;92521;-69
2022/09/19 00:29:32;;;;;;;0.47;0.47;;;8.40;99.90;8.40;99693.00;;;;4931140;28;92433;-69
2022/09/19 00:31:57;;;;;;;0.40;0.30;;;8.40;99.90;8.40;99691.00;;;;4932111;28;92564;-67
2022/09/19 00:34:23;;;;;;;0.50;0.30;;;8.50;99.90;8.40;99700.00;;;;4930370;28;123173;-69
2022/09/19 00:36:49;;;;;;;0.63;0.50;;;8.50;99.90;8.40;99693.00;;;;4903570;28;95391;-68
2022/09/19 00:39:17;;;;;;;1.00;0.40;;;8.50;99.90;8.40;99695.00;;;;4930739;28;110962;-68
2022/09/19 00:41:44;;;;;;;0.30;0.20;;;8.50;99.90;8.40;99698.00;;;;4931783;28;92646;-67
2022/09/19 00:44:22;;;;;;;0.73;0.47;;;8.50;99.90;8.40;99698.00;;;;4930158;28;93580;-67
2022/09/19 00:47:14;;;;;;;0.50;0.40;;;8.50;99.90;8.40;99699.00;;;;4929653;28;93671;-68
2022/09/19 00:49:48;;;;;;;2.10;0.83;;;8.50;99.90;8.40;99696.00;;;;4945878;28;92627;-69
2022/09/19 00:52:27;;;;;;;0.40;0.30;;;8.50;99.90;8.50;99689.00;;;;4930000;28;92552;-69
2022/09/19 00:54:53;;;;;;;0.20;0.20;;;8.50;99.90;8.50;99704.00;;;;4929447;28;92977;-68
2022/09/19 00:57:20;;;;;;;0.20;0.20;;;8.50;99.90;8.50;99689.00;;;;4930951;28;93335;-67
2022/09/19 00:59:49;;;;;;;0.20;0.20;;;8.50;99.90;8.50;99698.00;;;;4913412;28;93063;-67
2022/09/19 01:02:19;;;;;;;0.43;0.43;;;8.50;99.90;8.50;99697.00;;;;4923531;28;108670;-67
2022/09/19 01:04:44;;;;;;;0.30;0.30;;;8.60;99.90;8.50;99712.00;;;;4913817;28;92931;-67
2022/09/19 01:07:32;;;;;;;0.77;0.70;;;8.60;99.90;8.50;99705.00;;;;4929785;28;106035;-67
2022/09/19 01:10:38;;;;;;;0.50;0.50;;;8.60;99.90;8.50;99710.00;;;;4945614;28;93145;-67
2022/09/19 01:13:38;;;;;;;0.53;0.53;;;8.60;99.90;8.50;99719.00;;;;4928035;28;100258;-68
2022/09/19 01:16:33;;;;;;;0.37;0.37;;;8.60;99.90;8.50;99714.00;;;;4911731;28;93550;-67
2022/09/19 01:19:27;;;;;;;0.27;0.27;;;8.70;99.90;8.60;99724.00;;;;4912356;28;93258;-67
2022/09/19 01:22:23;;;;;;;0.77;0.53;;;8.60;99.90;8.60;99728.00;;;;4931521;28;92820;-66
2022/09/19 01:25:18;;;;;;;0.83;0.60;;;8.70;99.90;8.60;99734.00;;;;4931490;28;92529;-67
2022/09/19 01:28:13;;;;;;;1.23;0.70;;;8.70;99.90;8.60;99728.00;;;;4930785;28;92608;-66
2022/09/19 01:30:47;;;;;;;0.30;0.30;;;8.70;99.90;8.60;99724.00;;;;4943319;28;93057;-67
2022/09/19 01:33:17;;;;;;;0.80;0.63;;;8.70;99.90;8.70;99727.00;;;;4914307;28;91612;-67
2022/09/19 01:35:50;;;;;;;0.77;0.60;;;8.70;99.90;8.70;99738.00;;;;4922029;28;92455;-66
2022/09/19 01:38:23;;;;;;;0.83;0.80;;;8.80;99.90;8.70;99734.00;;;;4928190;28;93631;-66
2022/09/19 01:40:50;;;;;;;1.07;1.07;;;8.70;99.90;8.70;99728.00;;;;4944110;28;110266;-68
2022/09/19 01:43:18;;;;;;;1.90;0.80;;;8.70;99.90;8.70;99737.00;;;;4945241;28;92888;-67
2022/09/19 01:45:44;;;;;;;4.90;1.77;;;8.70;99.90;8.60;99748.00;;;;4930104;28;92010;-66
2022/09/19 01:48:14;;;;;;;1.53;1.07;;;8.70;99.90;8.60;99738.00;;;;4930667;28;93609;-67
2022/09/19 01:51:17;;;;;;;0.83;0.80;;;8.70;99.90;8.60;99751.00;;;;4930365;28;93547;-67
2022/09/19 01:54:08;;;;;;;1.43;1.20;;;8.70;99.90;8.60;99753.00;;;;4929829;28;92711;-66
2022/09/19 01:56:53;;;;;;;3.30;1.10;;;8.70;99.90;8.70;99747.00;;;;4926799;28;92103;-67
2022/09/19 02:00:06;;;;;;;0.77;0.67;;;8.80;99.90;8.70;99751.00;;;;4929223;28;92729;-67
2022/09/19 02:03:04;;;;;;;0.73;0.70;;;8.80;99.90;8.70;99756.00;;;;4929282;28;92445;-69
2022/09/19 02:06:08;;;;;;;1.03;0.80;;;8.80;99.90;8.70;99760.00;;;;4927808;28;92519;-67
2022/09/19 02:09:00;;;;;;;0.70;0.70;;;8.80;99.90;8.70;99758.00;;;;4898681;28;93544;-68
2022/09/19 02:11:27;;;;;;;1.27;0.77;;;8.80;99.90;8.80;99757.00;;;;4911898;28;93485;-66
2022/09/19 02:14:07;;;;;;;2.07;1.03;;;8.80;99.90;8.80;99757.00;;;;4928122;28;93366;-67
2022/09/19 02:16:51;;;;;;;1.03;0.93;;;8.80;99.90;8.80;99768.00;;;;4944362;28;92554;-69
2022/09/19 02:19:32;;;;;;;0.80;0.50;;;8.80;99.90;8.80;99772.00;;;;4927788;28;92687;-68
2022/09/19 02:22:31;;;;;;;0.83;0.80;;;8.80;99.90;8.80;99762.00;;;;4927286;28;93661;-68
2022/09/19 02:25:05;;;;;;;2.87;1.70;;;8.90;99.90;8.80;99781.00;;;;4929580;28;92565;-67
2022/09/19 02:27:38;;;;;;;1.23;1.13;;;8.80;99.90;8.80;99783.00;;;;4928615;28;91717;-68
2022/09/19 02:30:09;;;;;;;1.03;0.93;;;8.90;99.90;8.80;99786.00;;;;4930577;28;92421;-67
2022/09/19 02:32:37;;;;;;;2.13;1.33;;;8.90;99.90;8.80;99788.00;;;;4929129;28;93676;-67
2022/09/19 02:35:05;;;;;;;1.70;1.43;;;8.90;99.90;8.80;99780.00;;;;4943778;28;104321;-68
2022/09/19 02:38:24;;;;;;;3.57;1.77;;;8.90;99.90;8.80;99799.00;;;;4928879;28;92354;-68
2022/09/19 02:41:17;;;;;;;3.70;1.87;;;8.90;99.90;8.80;99802.00;;;;4885060;28;92607;-68
2022/09/19 02:44:23;;;;;;;3.63;2.37;;;8.90;99.90;8.80;99796.00;;;;4926359;28;94997;-69
2022/09/19 02:46:55;;;;;;;1.67;1.20;;;8.90;99.90;8.90;99799.00;;;;4878176;28;93522;-69
2022/09/19 02:49:41;;;;;;;1.70;1.60;;;8.90;99.90;8.90;99801.00;;;;4928589;28;105808;-69
2022/09/19 02:52:29;;;;;;;4.47;1.87;;;9.00;99.90;8.90;99806.00;;;;4942868;28;100259;-68
2022/09/19 02:55:12;;;;;;;2.43;1.60;;;9.00;99.90;8.90;99802.00;;;;4929725;28;93198;-68
2022/09/19 02:57:44;;;;;;;2.23;1.60;;;8.90;99.90;8.90;99806.00;;;;4911364;28;92585;-68
2022/09/19 03:00:13;;;;;;;1.60;1.50;;;9.00;99.90;8.90;99801.00;;;;4911071;28;93017;-68
2022/09/19 03:02:46;;;;;;;3.63;1.90;;;9.00;99.90;8.90;99804.00;;;;4943416;28;93704;-68
2022/09/19 03:05:19;;;;;;;2.80;1.53;;;8.90;99.90;8.80;99805.00;;;;4911258;28;93418;-67
2022/09/19 03:08:08;;;;;;;2.33;1.73;;;8.90;99.90;8.80;99809.00;;;;4944234;28;92439;-69
2022/09/19 03:10:40;;;;;;;1.87;1.53;;;8.90;99.90;8.80;99820.00;;;;4942421;28;92475;-68
2022/09/19 03:13:09;;;;;;;1.93;1.53;;;8.90;99.90;8.80;99812.00;;;;4943543;28;100801;-68
2022/09/19 03:15:51;;;;;;;4.37;1.97;;;8.80;99.90;8.70;99831.00;;;;4909767;28;92629;-68
2022/09/19 03:18:21;;;;;;;2.23;1.97;;;8.80;99.90;8.70;99830.00;;;;4928191;28;95795;-69
2022/09/19 03:20:53;;;;;;;5.60;2.20;;;8.80;99.90;8.70;99831.00;;;;4924634;28;92266;-68
2022/09/19 03:23:34;;;;;;;4.63;2.13;;;8.80;99.90;8.70;99841.00;;;;4929512;28;93417;-67
2022/09/19 03:26:01;;;;;;;2.37;1.60;;;8.80;99.90;8.70;99847.00;;;;4911264;28;92447;-68
2022/09/19 03:28:28;;;;;;;1.53;1.17;;;8.80;99.90;8.70;99843.00;;;;4928180;28;93437;-67
2022/09/19 03:30:59;;;;;;;2.47;1.37;;;8.80;99.90;8.60;99845.00;;;;4930814;28;92846;-67
2022/09/19 03:33:26;;;;;;;4.47;1.50;;;8.70;99.90;8.60;99846.00;;;;4931909;28;92244;-69
2022/09/19 03:35:52;;;;;;;1.93;1.33;;;8.70;99.90;8.60;99855.00;;;;4932234;28;92875;-68
2022/09/19 03:38:19;;;;;;;0.70;0.70;;;8.70;99.90;8.60;99855.00;;;;4932304;28;93671;-68
2022/09/19 03:40:45;;;;;;;1.53;1.23;;;8.70;99.90;8.60;99864.00;;;;4921449;28;92981;-69
2022/09/19 03:43:11;;;;;;;1.27;1.17;;;8.70;99.90;8.60;99864.00;;;;4905905;28;107921;-69
2022/09/19 03:45:36;;;;;;;1.37;1.23;;;8.70;99.90;8.70;99859.00;;;;4930965;28;121951;-68
2022/09/19 03:48:02;;;;;;;1.37;1.07;;;8.70;99.90;8.70;99864.00;;;;4931330;28;121437;-69
2022/09/19 03:50:28;;;;;;;1.57;1.30;;;8.70;99.90;8.70;99860.00;;;;4932224;28;109520;-69
2022/09/19 03:52:54;;;;;;;4.50;1.60;;;8.80;99.90;8.70;99876.00;;;;4931039;28;93484;-69
2022/09/19 03:55:20;;;;;;;3.37;1.37;;;8.80;99.90;8.70;99874.00;;;;4932408;28;92671;-68
2022/09/19 03:57:46;;;;;;;5.00;1.67;;;8.80;99.90;8.70;99871.00;;;;4931442;28;110446;-67
2022/09/19 04:00:12;;;;;;;3.03;1.37;;;8.80;99.90;8.80;99875.00;;;;4931250;28;110525;-68
2022/09/19 04:02:38;;;;;;;2.00;1.60;;;8.80;99.90;8.80;99884.00;;;;4931754;28;94206;-68
2022/09/19 04:05:04;;;;;;;2.37;1.57;;;8.80;99.90;8.80;99874.00;;;;4929476;28;117654;-68
2022/09/19 04:07:30;;;;;;;4.50;1.67;;;8.80;99.90;8.80;99880.00;;;;4931006;28;113236;-67
2022/09/19 04:09:56;;;;;;;1.13;0.93;;;8.80;99.90;8.80;99881.00;;;;4932225;28;109411;-69
2022/09/19 04:12:23;;;;;;;1.00;0.90;;;8.90;99.90;8.80;99883.00;;;;4931928;28;107166;-70
2022/09/19 04:14:48;;;;;;;1.13;1.03;;;8.80;99.90;8.80;99886.00;;;;4931041;28;102134;-68
2022/09/19 04:17:15;;;;;;;1.73;1.37;;;8.80;99.90;8.80;99875.00;;;;4932404;28;93440;-68
2022/09/19 04:19:44;;;;;;;0.77;0.67;;;8.80;99.90;8.80;99885.00;;;;4931879;28;92777;-68
2022/09/19 04:22:10;;;;;;;1.43;1.17;;;8.80;99.90;8.80;99883.00;;;;4943835;28;91935;-68
2022/09/19 04:24:39;;;;;;;0.70;0.70;;;8.80;99.90;8.80;99891.00;;;;4931910;28;92462;-68
2022/09/19 04:27:06;;;;;;;1.80;0.87;;;8.80;99.90;8.80;99900.00;;;;4921391;28;93393;-68
2022/09/19 04:29:33;;;;;;;1.47;1.03;;;8.80;99.90;8.80;99901.00;;;;4931643;28;92407;-69
2022/09/19 04:32:02;;;;;;;3.73;1.03;;;8.80;99.90;8.80;99904.00;;;;4946607;28;92568;-68
2022/09/19 04:34:29;;;;;;;0.93;0.83;;;8.80;99.90;8.80;99915.00;;;;4931691;28;92967;-68
2022/09/19 04:36:56;;;;;;;1.27;1.17;;;8.80;99.90;8.80;99917.00;;;;4930595;28;113483;-67
2022/09/19 04:39:25;;;;;;;2.70;0.87;;;8.80;99.90;8.80;99909.00;;;;4930620;28;92475;-68
2022/09/19 04:41:52;;;;;;;0.60;0.60;;;8.80;99.90;8.80;99911.00;;;;4931227;28;97681;-68
2022/09/19 04:44:21;;;;;;;0.53;0.43;;;8.80;99.90;8.80;99920.00;;;;4930930;28;93618;-68
2022/09/19 04:46:50;;;;;;;1.43;0.97;;;8.90;99.90;8.80;99915.00;;;;4931765;28;93325;-68
2022/09/19 04:49:18;;;;;;;0.80;0.77;;;8.90;99.90;8.80;99917.00;;;;4931137;28;92851;-68
2022/09/19 04:51:45;;;;;;;0.57;0.57;;;8.90;99.90;8.80;99919.00;;;;4930638;28;99359;-68
2022/09/19 04:54:12;;;;;;;1.37;0.90;;;8.90;99.90;8.90;99929.00;;;;4930326;28;122490;-68
2022/09/19 04:56:38;;;;;;;3.00;1.40;;;8.90;99.90;8.90;99928.00;;;;4931267;28;107318;-68
2022/09/19 04:59:04;;;;;;;0.90;0.90;;;8.90;99.90;8.90;99928.00;;;;4931657;28;91799;-68
2022/09/19 05:01:30;;;;;;;0.87;0.87;;;8.90;99.90;8.90;99928.00;;;;4929202;28;92843;-68
2022/09/19 05:03:57;;;;;;;1.37;0.97;;;9.00;99.90;8.90;99927.00;;;;4929236;28;94087;-68
2022/09/19 05:06:24;;;;;;;2.00;1.07;;;8.90;99.90;8.90;99928.00;;;;4930135;28;113732;-68
2022/09/19 05:08:50;;;;;;;1.57;1.10;;;9.00;99.90;8.90;99931.00;;;;4930463;28;92340;-68
2022/09/19 05:11:21;;;;;;;3.10;0.90;;;9.20;99.90;8.90;99936.00;;;;4931012;28;92576;-68
2022/09/19 05:13:49;;;;;;;3.63;1.23;;;9.00;99.90;8.90;99941.00;;;;4943489;28;92425;-68
2022/09/19 05:16:15;;;;;;;12.40;1.30;;;9.00;99.90;9.00;99947.00;;;;4930365;28;93503;-68
2022/09/19 05:18:42;;;;;;;6.03;1.07;;;9.00;99.90;9.00;99955.00;;;;4927557;28;93001;-67
2022/09/19 05:21:12;;;;;;;1.00;0.90;;;9.10;99.90;9.00;99955.00;;;;4917135;28;109712;-68
2022/09/19 05:23:38;;;;;;;2.60;1.13;;;9.10;99.90;9.00;99957.00;;;;4931195;28;92297;-68
2022/09/19 05:26:08;;;;;;;1.10;1.00;;;9.10;99.90;9.10;99957.00;;;;4930370;28;121107;-68
2022/09/19 05:28:33;;;;;;;4.60;1.17;;;9.10;99.90;9.10;99959.00;;;;4929803;28;99980;-68
2022/09/19 05:31:04;;;;;;;0.87;0.87;;;9.10;99.90;9.10;99966.00;;;;4929723;28;107928;-68
2022/09/19 05:33:32;;;;;;;2.97;1.93;;;9.20;99.90;9.10;99962.00;;;;4944932;28;93919;-68
2022/09/19 05:36:00;;;;;;;2.30;1.60;;;9.20;99.90;9.20;99965.00;;;;4930495;28;93438;-68
2022/09/19 05:38:31;;;;;;;1.40;1.30;;;9.20;99.90;9.20;99973.00;;;;4931048;28;92709;-68
2022/09/19 05:40:59;;;;;;;3.33;1.70;;;9.20;99.90;9.20;99969.00;;;;4930774;28;92603;-67
2022/09/19 05:43:26;;;;;;;0.87;0.87;;;9.30;99.90;9.30;99968.00;;;;4930751;28;92612;-67
2022/09/19 05:45:54;;;;;;;6.47;1.80;;;9.30;99.90;9.30;99974.00;;;;4929098;28;114590;-67
2022/09/19 05:48:21;;;;;;;2.73;1.83;;;9.30;99.90;9.30;99968.00;;;;4931336;28;91945;-67
2022/09/19 05:50:49;;;;;;;1.50;1.40;;;9.40;99.90;9.30;99979.00;;;;4929492;28;92462;-67
2022/09/19 05:56:01;;;;;;;4.00;1.73;;;9.40;99.90;9.40;99977.00;;;;4928876;28;93425;-67
2022/09/19 05:58:28;;;;;;;2.67;1.30;;;9.50;99.90;9.40;99973.00;;;;4930007;28;92579;-67
2022/09/19 06:00:54;;;;;;;2.60;1.90;;;9.50;99.90;9.40;99980.00;;;;4929628;28;92017;-67
2022/09/19 06:03:21;;;;;;;3.63;2.23;;;9.50;99.90;9.50;99976.00;;;;4929569;28;93811;-67
2022/09/19 06:05:50;;;;;;;2.13;1.90;;;9.50;99.90;9.50;99982.00;;;;4929113;28;93805;-65
2022/09/19 06:08:19;;;;;;;3.33;1.70;;;9.50;99.90;9.50;99985.00;;;;4929403;28;92350;-65
2022/09/19 06:10:46;;;;;;;2.17;1.53;;;9.50;99.90;9.50;99993.00;;;;4930588;28;92348;-65
2022/09/19 06:13:21;;;;;;;2.40;1.90;;;9.60;99.90;9.50;99989.00;;;;4929570;28;101106;-65
2022/09/19 06:15:47;;;;;;;2.97;2.17;;;9.60;99.90;9.50;99986.00;;;;4929000;28;92519;-65
2022/09/19 06:18:13;;;;;;;2.63;2.27;;;9.60;99.90;9.60;99986.00;;;;4930489;28;92515;-65
2022/09/19 06:20:43;;;;;;;2.50;2.30;;;9.60;99.90;9.60;99988.00;;;;4944854;28;93089;-65
2022/09/19 06:23:11;;;;;;;4.80;2.40;;;9.60;99.90;9.60;99988.00;;;;4929285;28;108131;-65
2022/09/19 06:25:38;;;;;;;4.00;2.40;;;9.70;99.90;9.70;99997.00;;;;4929266;28;92714;-66
2022/09/19 06:28:12;;;;;;;3.80;1.97;;;9.70;99.90;9.70;99997.00;;;;4911956;28;92660;-65
2022/09/19 06:30:38;;;;;;;3.63;2.83;;;9.70;99.90;9.70;100004.00;;;;4909981;28;92577;-65
2022/09/19 06:33:07;;;;;;;2.83;2.47;;;9.80;99.90;9.80;99999.00;;;;4929072;28;122836;-66
2022/09/19 06:35:33;;;;;;;4.03;2.10;;;9.80;99.90;9.80;100004.00;;;;4927762;28;95148;-67
2022/09/19 06:38:01;;;;;;;4.10;2.20;;;9.90;99.90;9.80;100007.00;;;;4928860;28;92076;-67
2022/09/19 06:40:28;;;;;;;3.87;2.10;;;9.90;99.90;9.80;100004.00;;;;4929466;28;92764;-67
2022/09/19 06:43:05;;;;;;;4.53;2.43;;;9.90;99.90;9.90;100017.00;;;;4929627;28;94013;-67
2022/09/19 06:45:37;;;;;;;2.47;2.27;;;9.90;99.90;9.90;100014.00;;;;4928019;28;93612;-67
2022/09/19 06:48:04;;;;;;;3.57;2.23;;;9.90;99.90;9.90;100018.00;;;;4928552;28;92998;-67
2022/09/19 06:50:31;;;;;;;2.87;2.63;;;9.90;99.90;9.90;100020.00;;;;4927605;28;92534;-69
2022/09/19 06:52:58;;;;;;;1.87;1.77;;;9.90;99.90;9.90;100025.00;;;;4926225;28;94619;-68
2022/09/19 06:55:25;;;;;;;3.77;2.00;;;10.00;99.90;10.00;100033.00;;;;4927155;28;113375;-68
2022/09/19 06:57:58;;;;;;;3.97;2.43;;;10.00;99.90;9.90;100033.00;;;;4929128;28;92448;-68
2022/09/19 07:00:26;;;;;;;3.30;2.33;;;10.00;99.90;9.90;100040.00;;;;4923335;28;92809;-67
2022/09/19 07:02:59;;;;;;;2.47;2.00;;;10.00;99.90;9.90;100041.00;;;;4929459;28;92861;-67
2022/09/19 07:05:30;;;;;;;2.47;2.10;;;10.00;99.90;9.90;100048.00;;;;4916797;28;94169;-66
2022/09/19 07:07:57;;;;;;;2.53;1.67;;;10.00;99.90;9.90;100045.00;;;;4928883;28;92305;-67
2022/09/19 07:10:22;;;;;;;2.80;2.20;;;10.00;99.90;10.00;100047.00;;;;4927682;28;93327;-67
2022/09/19 07:13:01;;;;;;;3.80;2.87;;;10.00;99.90;10.00;100052.00;;;;4944070;28;92695;-68
2022/09/19 07:15:27;;;;;;;3.80;2.70;;;10.00;99.90;10.00;100064.00;;;;4928182;28;93564;-68
2022/09/19 07:17:55;;;;;;;6.00;2.50;;;10.10;99.90;10.10;100061.00;;;;4929624;28;92548;-67
2022/09/19 07:20:22;;;;;;;3.23;2.37;;;10.10;99.90;10.10;100066.00;;;;4929191;28;92846;-68
2022/09/19 07:23:11;;;;;;;2.10;1.83;;;10.10;99.90;10.10;100065.00;;;;4929902;28;93243;-68
2022/09/19 07:25:37;;;;;;;2.30;1.90;;;10.10;99.90;10.20;100074.00;;;;4928408;28;115719;-67
2022/09/19 07:28:06;;;;;;;3.20;2.33;;;10.20;99.90;10.20;100076.00;;;;4930029;28;91360;-67
2022/09/19 07:30:34;;;;;;;2.77;1.87;;;10.20;99.90;10.20;100081.00;;;;4904480;28;98225;-67
2022/09/19 07:33:03;;;;;;;2.93;2.20;;;10.30;99.90;10.30;100080.00;;;;4929673;28;94130;-67
2022/09/19 07:35:34;;;;;;;4.53;2.73;;;10.30;99.90;10.30;100078.00;;;;4927596;28;106271;-67
2022/09/19 07:38:01;;;;;;;4.57;2.43;;;10.30;99.90;10.30;100088.00;;;;4929598;28;92456;-67
2022/09/19 07:40:27;;;;;;;2.23;1.90;;;10.20;99.90;10.30;100085.00;;;;4929191;28;92281;-67
2022/09/19 07:42:58;;;;;;;2.20;1.90;;;10.30;99.90;10.30;100091.00;;;;4928095;28;111852;-67
2022/09/19 07:45:23;;;;;;;3.67;2.30;;;10.30;99.90;10.40;100099.00;;;;4926036;28;111021;-68
2022/09/19 07:47:49;;;;;;;3.20;1.70;;;10.40;99.90;10.40;100103.00;;;;4928604;28;110459;-68
2022/09/19 07:50:18;;;;;;;3.30;1.83;;;10.40;99.90;10.50;100098.00;;;;4928027;28;107892;-68
2022/09/19 07:52:47;;;;;;;1.53;1.43;;;10.50;99.90;10.50;100113.00;;;;4914694;28;95060;-69
2022/09/19 07:55:14;;;;;;;4.33;1.83;;;10.50;99.90;10.60;100114.00;;;;4925313;28;92452;-69
2022/09/19 07:57:57;;;;;;;2.17;1.97;;;10.60;99.90;10.60;100111.00;;;;4925897;28;92403;-68
2022/09/19 08:00:25;;;;;;;2.13;1.93;;;10.60;99.90;10.60;100122.00;;;;4927155;28;93378;-68
2022/09/19 08:03:00;;;;;;;1.87;1.40;;;10.70;99.90;10.70;100124.00;;;;4924966;28;93014;-69
2022/09/19 08:05:28;;;;;;;1.60;1.30;;;10.70;99.90;10.70;100130.00;;;;4927132;28;92522;-70
2022/09/19 08:07:55;;;;;;;3.43;1.43;;;10.70;99.90;10.70;100128.00;;;;4926520;28;92166;-70
2022/09/19 08:10:21;;;;;;;1.43;1.30;;;10.80;99.90;10.70;100132.00;;;;4927551;28;92327;-69
2022/09/19 08:12:48;;;;;;;1.40;0.83;;;10.80;99.90;10.80;100138.00;;;;4928351;28;92812;-68
2022/09/19 08:15:17;;;;;;;1.50;1.37;;;10.80;99.90;10.80;100142.00;;;;4927836;28;93898;-68
2022/09/19 08:18:00;;;;;;;2.00;1.10;;;10.80;99.90;10.80;100143.00;;;;4931893;28;91280;-69
2022/09/19 08:20:28;;;;;;;2.10;1.63;;;10.80;99.90;10.80;100141.00;;;;4919904;28;92619;-69
2022/09/19 08:22:56;;;;;;;1.03;0.93;;;10.90;99.90;10.80;100153.00;;;;4921066;28;94087;-69
2022/09/19 08:25:24;;;;;;;10.83;1.17;;;10.90;99.90;10.90;100167.00;;;;4926356;28;112782;-67
2022/09/19 08:27:51;;;;;;;1.27;1.17;;;10.90;99.90;10.90;100156.00;;;;4908367;28;92335;-68
2022/09/19 08:30:18;;;;;;;1.73;1.40;;;10.90;99.90;10.90;100174.00;;;;4946120;28;92568;-68
2022/09/19 08:32:49;;;;;;;1.93;1.20;;;10.90;99.90;10.90;100165.00;;;;4931103;28;115628;-69
2022/09/19 08:35:16;;;;;;;5.43;0.87;;;10.90;99.90;11.00;100173.00;;;;4929218;28;93497;-67
2022/09/19 08:37:43;;;;;;;0.90;0.83;;;11.00;99.90;11.00;100166.00;;;;4929325;28;93008;-68
2022/09/19 08:40:28;;;;;;;1.63;0.93;;;11.00;99.90;11.00;100176.00;;;;4929320;28;92044;-68
2022/09/19 08:43:16;;;;;;;1.30;1.17;;;11.00;99.90;11.00;100183.00;;;;4928508;28;93022;-67
2022/09/19 08:46:12;;;;;;;5.93;1.50;;;11.10;99.90;11.00;100183.00;;;;4924569;28;112665;-69
2022/09/19 08:49:12;;;;;;;2.07;1.23;;;11.10;99.90;11.00;100180.00;;;;4928334;28;101288;-68
2022/09/19 08:51:55;;;;;;;1.43;1.27;;;11.10;99.90;11.10;100188.00;;;;4929792;28;93353;-69
2022/09/19 08:54:32;;;;;;;0.67;0.67;;;11.10;99.90;11.10;100195.00;;;;4930146;28;92720;-67
2022/09/19 08:57:00;;;;;;;1.27;1.13;;;11.10;99.90;11.10;100198.00;;;;4945304;28;93307;-68
2022/09/19 08:59:39;;;;;;;2.00;1.33;;;11.10;99.90;11.10;100201.00;;;;4943739;28;92588;-69
2022/09/19 09:02:51;;;;;;;1.17;1.07;;;11.10;99.90;11.10;100207.00;;;;4902258;28;92485;-69
2022/09/19 09:05:41;;;;;;;1.80;0.93;;;11.20;99.90;11.20;100200.00;;;;4910523;28;93541;-69
2022/09/19 09:08:33;;;;;;;1.07;0.97;;;11.20;99.90;11.20;100217.00;;;;4929922;28;93336;-69
2022/09/19 09:11:49;;;;;;;1.30;1.00;;;11.30;99.90;11.20;100207.00;;;;4929816;28;92148;-68
2022/09/19 09:14:39;;;;;;;1.87;1.10;;;11.30;99.90;11.30;100215.00;;;;4945538;28;92475;-68
2022/09/19 09:17:24;;;;;;;1.43;1.00;;;11.30;99.90;11.30;100218.00;;;;4944950;28;94236;-67
2022/09/19 09:20:46;;;;;;;0.87;0.73;;;11.30;99.90;11.30;100224.00;;;;4928869;28;113875;-66
2022/09/19 09:23:37;;;;;;;1.37;1.27;;;11.40;99.90;11.30;100224.00;;;;4882217;28;92501;-66
2022/09/19 09:26:09;;;;;;;5.20;1.20;;;11.40;99.90;11.30;100222.00;;;;4899126;28;92478;-65
2022/09/19 09:28:52;;;;;;;2.47;1.50;;;11.40;99.90;11.30;100226.00;;;;4895642;28;98826;-65
2022/09/19 09:31:27;;;;;;;1.53;1.37;;;11.40;99.90;11.40;100226.00;;;;4913902;28;93948;-64
2022/09/19 09:34:01;;;;;;;1.17;1.07;;;11.40;99.90;11.40;100234.00;;;;4895150;28;92693;-66
2022/09/19 09:36:35;;;;;;;8.97;1.37;;;11.50;99.90;11.40;100231.00;;;;4916137;28;92876;-65
2022/09/19 09:39:27;;;;;;;1.57;1.43;;;11.50;99.90;11.50;100235.00;;;;4913769;28;106721;-66
2022/09/19 09:41:59;;;;;;;3.30;1.67;;;11.50;99.90;11.50;100237.00;;;;4928243;28;108548;-65
2022/09/19 09:44:57;;;;;;;2.73;1.87;;;11.50;99.90;11.50;100239.00;;;;4900897;28;92562;-65
2022/09/19 09:47:39;;;;;;;1.93;1.30;;;11.60;99.90;11.50;100241.00;;;;4899288;28;93817;-64
2022/09/19 09:50:27;;;;;;;2.20;1.63;;;11.50;99.90;11.60;100237.00;;;;4927672;28;92725;-65
2022/09/19 09:53:11;;;;;;;2.13;1.47;;;11.60;99.90;11.60;100235.00;;;;4911779;28;92476;-65
2022/09/19 09:56:15;;;;;;;2.23;1.80;;;11.60;99.90;11.70;100231.00;;;;4896687;28;100227;-64
2022/09/19 09:58:59;;;;;;;1.50;1.40;;;11.70;99.90;11.80;100239.00;;;;4926659;28;92509;-64
2022/09/19 10:04:36;;;;;;;2.80;1.60;;;11.90;99.90;11.90;100236.00;;;;4901634;28;92633;-65
2022/09/19 10:08:18;;;;;;;1.97;1.50;;;11.90;99.90;12.00;100231.00;;;;4931075;28;91392;-63
2022/09/19 10:10:45;;;;;;;0.90;0.90;;;12.00;99.90;12.10;100240.00;;;;4861175;28;92994;-62
2022/09/19 10:13:31;;;;;;;1.17;1.07;;;12.10;99.90;12.20;100245.00;;;;4862140;28;104077;-62
2022/09/19 10:16:03;;;;;;;1.70;1.60;;;12.20;99.90;12.30;100245.00;;;;4898384;28;93197;-63
2022/09/19 10:18:42;;;;;;;1.70;1.43;;;12.30;99.90;12.40;100244.00;;;;4899558;28;93070;-64
2022/09/19 10:21:08;;;;;;;1.67;1.57;;;12.40;99.90;12.50;100243.00;;;;4921059;28;92598;-62
2022/09/19 10:23:34;;;;;;;1.60;1.50;;;12.40;99.90;12.60;100244.00;;;;4929896;28;94014;-62
2022/09/19 10:26:04;;;;;;;2.23;1.67;;;12.60;99.90;12.70;100254.00;;;;4929010;28;122692;-62
2022/09/19 10:28:41;;;;;;;2.00;1.63;;;12.60;99.90;12.70;100241.00;;;;4945053;28;92784;-63
2022/09/19 10:31:34;;;;;;;1.47;1.37;;;12.70;99.90;12.80;100248.00;;;;4943696;28;92718;-62
2022/09/19 10:34:22;;;;;;;1.47;1.37;;;12.80;99.90;12.90;100246.00;;;;4929939;28;92880;-64
2022/09/19 10:36:48;;;;;;;2.83;1.30;;;12.90;99.90;13.00;100257.00;;;;4944163;28;92961;-63
2022/09/19 10:39:16;;;;;;;0.70;0.70;;;13.00;99.90;13.10;100243.00;;;;4930004;28;92783;-63
2022/09/19 10:41:43;;;;;;;1.67;1.57;;;13.10;99.90;13.20;100259.00;;;;4929852;28;93419;-64
2022/09/19 10:44:22;;;;;;;1.17;1.07;;;13.20;99.90;13.40;100264.00;;;;4929496;28;92754;-63
2022/09/19 10:47:01;;;;;;;3.23;1.67;;;13.30;99.90;13.50;100269.00;;;;4928166;28;92972;-64
2022/09/19 10:49:38;;;;;;;1.48;1.35;;;13.40;99.90;13.70;100263.00;;;;4944003;28;92787;-64
2022/09/19 10:52:04;;;;;;;2.53;1.37;;;13.60;99.90;13.80;100259.00;;;;4904130;28;92398;-64
2022/09/19 10:54:40;;;;;;;2.70;1.47;;;13.70;99.90;13.90;100263.00;;;;4929685;28;93519;-63
2022/09/19 10:57:45;;;;;;;1.37;1.00;;;13.80;99.90;14.00;100261.00;;;;4910955;28;92693;-64
2022/09/19 11:00:31;;;;;;;1.17;1.00;;;13.90;99.90;14.00;100257.00;;;;4926703;28;91327;-63
2022/09/19 11:03:01;;;;;;;1.20;1.10;;;14.00;99.90;14.10;100268.00;;;;4944434;28;92805;-63
2022/09/19 11:05:30;;;;;;;4.73;1.30;;;14.00;99.90;14.20;100266.00;;;;4926871;28;92688;-63
2022/09/19 11:07:56;;;;;;;1.00;0.90;;;14.10;99.90;14.30;100272.00;;;;4911289;28;93766;-63
2022/09/19 11:10:38;;;;;;;2.30;0.80;;;14.20;99.90;14.40;100267.00;;;;4930000;28;92876;-63
2022/09/19 11:13:20;;;;;;;1.07;1.00;;;14.30;99.90;14.60;100264.00;;;;4930019;28;92844;-63
2022/09/19 11:15:59;;;;;;;1.15;0.65;;;14.50;99.90;14.80;100274.00;;;;4927588;28;92676;-63
2022/09/19 11:18:43;;;;;;;1.63;1.43;;;14.70;99.90;15.10;100267.00;;;;4911864;28;93397;-63
2022/09/19 11:21:36;;;;;;;2.20;1.37;;;14.90;99.90;15.40;100269.00;;;;4943337;28;102467;-63
2022/09/19 11:24:41;;;;;;;1.08;0.75;;;15.20;99.90;15.80;100277.00;;;;4927890;28;92879;-64
2022/09/19 11:27:39;;;;;;;0.82;0.82;;;15.50;99.90;16.10;100275.00;;;;4943477;28;99787;-62
2022/09/19 11:30:18;;;;;;;1.33;1.05;;;15.90;99.90;16.50;100282.00;;;;4928977;28;92458;-64
2022/09/19 11:33:05;;;;;;;0.55;0.50;;;16.20;99.90;17.00;100281.00;;;;4927195;28;92485;-63
2022/09/19 11:35:49;;;;;;;0.75;0.75;;;16.70;99.90;17.50;100282.00;;;;4927847;28;93575;-62
2022/09/19 11:38:36;;;;;;;1.40;1.20;;;17.10;99.90;17.90;100292.00;;;;4944020;28;97201;-63
2022/09/19 11:41:48;;;;;;;0.65;0.65;;;17.50;99.90;18.00;100281.00;;;;4908990;28;115011;-63
2022/09/19 11:44:20;;;;;;;1.02;0.63;;;17.80;99.90;18.30;100283.00;;;;4925404;28;103267;-63